Archival Weather

Glendale Muni

Glendale, Arizona (KGEU)

Report from: Wednesday, December 6, 2023 4:47 PM MST
Current time: Wednesday, April 24, 2024 12:45 PM MST

Current weather – Weather history – Daily summaries
Weather forecast

Temperature26.0°C (78.8°F)
Dew point-1.0°C (30.2°F)
Winds 4 kts (2.1 m/s, 4.6 mph) Vrb
Winds variableWinds variable
Visibility10 mi. (16.1 km)
Clouds Few clouds 25,000 ft. (7,620 m)
Altimeter29.97 in.Hg (1015 mB)
Relative humidity17 %
Density altitude1,308 ft. (399 m)
Flight conditions Visual Meteorological Conditions
Raw dataKGEU 062347Z VRB04KT 10SM FEW250 26/M01 A2997
An error has occurred. This application may no longer respond until reloaded. Reload 🗙